Time;durP1;ratioP1;P1;durP2;ratioP2;P2;SDS_P1;SDS_P2;PMS_P1;PMS_P2;Temp;Humidity;BMP_temperature;BMP_pressure;BME280_temperature;BME280_humidity;BME280_pressure;Samples;Min_cycle;Max_cycle;Signal;HPM_P1;HPM_P2
2021/12/07 00:00:32;;;;;;;0.00;0.00;;;;;;;;;;1713393;28;20604;-72
2021/12/07 00:01:23;;;;;;;0.00;0.00;;;;;;;;;;1715488;28;20412;-72
2021/12/07 00:02:15;;;;;;;0.00;0.00;;;;;;;;;;1715342;28;20207;-72
2021/12/07 00:03:07;;;;;;;0.00;0.00;;;;;;;;;;1719117;28;20312;-72
2021/12/07 00:04:01;;;;;;;0.00;0.00;;;;;;;;;;1719145;28;20878;-71
2021/12/07 00:04:52;;;;;;;0.00;0.00;;;;;;;;;;1719122;28;20267;-71
2021/12/07 00:05:44;;;;;;;0.00;0.00;;;;;;;;;;1718691;28;20267;-71
2021/12/07 00:06:36;;;;;;;0.00;0.00;;;;;;;;;;1719428;28;20251;-71
2021/12/07 00:07:28;;;;;;;0.00;0.00;;;;;;;;;;1719133;28;20204;-71
2021/12/07 00:08:19;;;;;;;0.00;0.00;;;;;;;;;;1718878;28;20201;-71
2021/12/07 00:09:12;;;;;;;0.10;0.10;;;;;;;;;;1718453;28;20203;-71
2021/12/07 00:10:07;;;;;;;0.00;0.00;;;;;;;;;;1719219;28;20497;-71
2021/12/07 00:10:59;;;;;;;0.00;0.00;;;;;;;;;;1718187;28;20574;-71
2021/12/07 00:11:50;;;;;;;0.00;0.00;;;;;;;;;;1719739;28;20209;-71
2021/12/07 00:12:45;;;;;;;0.00;0.00;;;;;;;;;;1719308;28;20292;-71
2021/12/07 00:13:38;;;;;;;0.00;0.00;;;;;;;;;;1719189;28;20208;-72
2021/12/07 00:14:37;;;;;;;0.00;0.00;;;;;;;;;;1718658;28;20207;-72
2021/12/07 00:15:30;;;;;;;0.00;0.00;;;;;;;;;;1718871;28;20632;-72
2021/12/07 00:16:22;;;;;;;0.00;0.00;;;;;;;;;;1718691;28;20286;-72
2021/12/07 00:17:14;;;;;;;0.00;0.00;;;;;;;;;;1715735;28;20212;-72
2021/12/07 00:18:06;;;;;;;0.00;0.00;;;;;;;;;;1719469;28;20236;-71
2021/12/07 00:18:57;;;;;;;0.00;0.00;;;;;;;;;;1719076;28;20797;-72
2021/12/07 00:19:51;;;;;;;0.00;0.00;;;;;;;;;;1717800;28;20227;-72
2021/12/07 00:20:42;;;;;;;0.00;0.00;;;;;;;;;;1717925;28;20240;-71
2021/12/07 00:21:34;;;;;;;0.00;0.00;;;;;;;;;;1714630;28;20201;-72
2021/12/07 00:22:26;;;;;;;0.00;0.00;;;;;;;;;;1717085;28;20202;-72
2021/12/07 00:23:18;;;;;;;0.00;0.00;;;;;;;;;;1719661;28;20209;-72
2021/12/07 00:24:10;;;;;;;0.00;0.00;;;;;;;;;;1719218;28;20247;-72
2021/12/07 00:25:02;;;;;;;0.08;0.08;;;;;;;;;;1719480;28;20267;-72
2021/12/07 00:25:54;;;;;;;0.10;0.10;;;;;;;;;;1717978;28;20229;-72
2021/12/07 00:26:46;;;;;;;0.10;0.10;;;;;;;;;;1718933;28;20635;-72
2021/12/07 00:27:38;;;;;;;0.20;0.20;;;;;;;;;;1718638;28;20633;-72
2021/12/07 00:28:30;;;;;;;0.00;0.00;;;;;;;;;;1719358;28;20205;-72
2021/12/07 00:29:21;;;;;;;0.00;0.00;;;;;;;;;;1718629;28;20205;-72
2021/12/07 00:30:15;;;;;;;0.00;0.00;;;;;;;;;;1719642;28;20203;-72
2021/12/07 00:31:12;;;;;;;0.00;0.00;;;;;;;;;;1718421;28;20275;-72
2021/12/07 00:32:18;;;;;;;0.10;0.10;;;;;;;;;;1718744;28;20593;-72
2021/12/07 00:33:15;;;;;;;0.10;0.10;;;;;;;;;;1718851;28;20805;-71
2021/12/07 00:34:14;;;;;;;0.00;0.00;;;;;;;;;;1719264;28;20193;-72
2021/12/07 00:35:25;;;;;;;0.00;0.00;;;;;;;;;;1719791;28;20236;-72
2021/12/07 00:36:17;;;;;;;0.00;0.00;;;;;;;;;;1718313;28;20237;-72
2021/12/07 00:37:09;;;;;;;0.00;0.00;;;;;;;;;;1720820;28;20650;-72
2021/12/07 00:38:03;;;;;;;0.00;0.00;;;;;;;;;;1725223;28;20613;-72
2021/12/07 00:38:55;;;;;;;0.00;0.00;;;;;;;;;;1725290;28;20273;-71
2021/12/07 00:39:47;;;;;;;0.00;0.00;;;;;;;;;;1725678;28;20643;-71
2021/12/07 00:40:39;;;;;;;0.00;0.00;;;;;;;;;;1725385;28;20311;-71
2021/12/07 00:41:31;;;;;;;0.05;0.05;;;;;;;;;;1726029;28;20653;-71
2021/12/07 00:42:23;;;;;;;0.00;0.00;;;;;;;;;;1725957;28;20204;-71
2021/12/07 00:43:15;;;;;;;0.00;0.00;;;;;;;;;;1722206;28;20209;-71
2021/12/07 00:44:07;;;;;;;0.00;0.00;;;;;;;;;;1724390;28;20212;-71
2021/12/07 00:45:00;;;;;;;0.00;0.00;;;;;;;;;;1725799;28;20208;-71
2021/12/07 00:45:54;;;;;;;0.00;0.00;;;;;;;;;;1720706;28;20244;-71
2021/12/07 00:46:46;;;;;;;0.00;0.00;;;;;;;;;;1719293;28;20217;-71
2021/12/07 00:47:38;;;;;;;0.03;0.03;;;;;;;;;;1718725;28;20202;-71
2021/12/07 00:48:30;;;;;;;0.00;0.00;;;;;;;;;;1719468;28;20207;-71
2021/12/07 00:49:23;;;;;;;0.00;0.00;;;;;;;;;;1718729;28;20292;-71
2021/12/07 00:50:16;;;;;;;0.00;0.00;;;;;;;;;;1718352;28;20209;-71
2021/12/07 00:51:08;;;;;;;0.00;0.00;;;;;;;;;;1717722;28;20403;-71
2021/12/07 00:51:59;;;;;;;0.00;0.00;;;;;;;;;;1718738;28;20209;-72
2021/12/07 00:52:52;;;;;;;0.00;0.00;;;;;;;;;;1719388;28;20288;-71
2021/12/07 00:53:43;;;;;;;0.00;0.00;;;;;;;;;;1718810;28;20621;-71
2021/12/07 00:54:35;;;;;;;0.00;0.00;;;;;;;;;;1718217;28;20613;-71
2021/12/07 00:55:28;;;;;;;0.00;0.00;;;;;;;;;;1713378;28;20206;-71
2021/12/07 00:56:21;;;;;;;0.10;0.10;;;;;;;;;;1718194;28;20563;-71
2021/12/07 00:57:12;;;;;;;0.00;0.00;;;;;;;;;;1718862;28;20219;-71
2021/12/07 00:58:12;;;;;;;0.00;0.00;;;;;;;;;;1719040;28;20228;-71
2021/12/07 00:59:04;;;;;;;0.00;0.00;;;;;;;;;;1719037;28;20227;-71
2021/12/07 00:59:56;;;;;;;0.03;0.03;;;;;;;;;;1719254;28;20521;-71
2021/12/07 01:00:49;;;;;;;0.00;0.00;;;;;;;;;;1718290;28;20679;-71
2021/12/07 01:01:41;;;;;;;0.00;0.00;;;;;;;;;;1712078;28;20204;-71
2021/12/07 01:02:33;;;;;;;0.00;0.00;;;;;;;;;;1716826;28;20546;-71
2021/12/07 01:03:25;;;;;;;0.00;0.00;;;;;;;;;;1719372;28;20638;-71
2021/12/07 01:04:17;;;;;;;0.10;0.10;;;;;;;;;;1718476;28;20204;-71
2021/12/07 01:05:15;;;;;;;0.00;0.00;;;;;;;;;;1719775;28;20219;-71
2021/12/07 01:06:17;;;;;;;0.10;0.10;;;;;;;;;;1717302;28;20239;-70
2021/12/07 01:07:23;;;;;;;0.00;0.00;;;;;;;;;;1718312;28;20547;-70
2021/12/07 01:08:24;;;;;;;0.10;0.10;;;;;;;;;;1718545;28;20528;-70
2021/12/07 01:09:24;;;;;;;0.00;0.00;;;;;;;;;;1718388;28;20204;-70
2021/12/07 01:24:42;;;;;;;0.00;0.00;;;;;;;;;;1711633;28;20194;-70
2021/12/07 01:25:37;;;;;;;0.10;0.10;;;;;;;;;;1710181;28;21546;-71
2021/12/07 01:26:29;;;;;;;0.00;0.00;;;;;;;;;;1718862;28;20251;-71
2021/12/07 01:27:21;;;;;;;0.00;0.00;;;;;;;;;;1718447;28;20526;-71
2021/12/07 01:28:21;;;;;;;0.00;0.00;;;;;;;;;;1718953;28;20539;-71
2021/12/07 01:29:13;;;;;;;0.10;0.10;;;;;;;;;;1717831;28;20232;-71
2021/12/07 01:30:12;;;;;;;0.10;0.10;;;;;;;;;;1718959;28;20202;-71
2021/12/07 01:31:14;;;;;;;0.10;0.10;;;;;;;;;;1717301;28;20641;-71
2021/12/07 01:32:16;;;;;;;0.00;0.00;;;;;;;;;;1718320;28;20685;-71
2021/12/07 01:33:24;;;;;;;0.20;0.20;;;;;;;;;;1719077;28;20296;-71
2021/12/07 01:34:38;;;;;;;0.00;0.00;;;;;;;;;;1718172;28;20193;-71
2021/12/07 01:37:05;;;;;;;0.10;0.10;;;;;;;;;;1718507;28;20269;-71
2021/12/07 01:38:20;;;;;;;0.00;0.00;;;;;;;;;;1718625;28;20209;-71
2021/12/07 01:39:48;;;;;;;0.20;0.20;;;;;;;;;;1718420;28;20607;-71
2021/12/07 01:43:26;;;;;;;0.00;0.00;;;;;;;;;;1712099;28;20847;-71
2021/12/07 01:44:28;;;;;;;0.05;0.05;;;;;;;;;;1715383;28;20201;-71
2021/12/07 01:45:50;;;;;;;0.10;0.10;;;;;;;;;;1719047;28;20185;-71
2021/12/07 01:46:53;;;;;;;0.00;0.00;;;;;;;;;;1716578;28;20228;-71
2021/12/07 01:47:55;;;;;;;0.10;0.10;;;;;;;;;;1718969;28;20658;-71
2021/12/07 01:50:30;;;;;;;0.20;0.20;;;;;;;;;;1711165;28;20205;-71
2021/12/07 01:51:43;;;;;;;0.00;0.00;;;;;;;;;;1714548;28;20232;-71
2021/12/07 01:52:58;;;;;;;0.10;0.10;;;;;;;;;;1717765;28;20213;-71
2021/12/07 01:59:47;;;;;;;0.00;0.00;;;;;;;;;;1716718;28;20526;-71
2021/12/07 02:00:40;;;;;;;0.00;0.00;;;;;;;;;;1717188;28;20275;-71
2021/12/07 02:01:32;;;;;;;0.30;0.30;;;;;;;;;;1713509;28;20293;-71
2021/12/07 02:02:24;;;;;;;0.00;0.00;;;;;;;;;;1714878;28;20208;-71
2021/12/07 02:03:17;;;;;;;0.10;0.10;;;;;;;;;;1716918;28;20211;-71
2021/12/07 02:04:08;;;;;;;0.10;0.10;;;;;;;;;;1716153;28;20211;-71
2021/12/07 02:05:00;;;;;;;0.10;0.10;;;;;;;;;;1718650;28;20304;-71
2021/12/07 02:05:51;;;;;;;0.10;0.10;;;;;;;;;;1717422;28;20244;-71
2021/12/07 02:06:43;;;;;;;0.10;0.10;;;;;;;;;;1718038;28;20198;-71
2021/12/07 02:07:35;;;;;;;0.00;0.00;;;;;;;;;;1717990;28;20228;-71
2021/12/07 02:08:27;;;;;;;0.00;0.00;;;;;;;;;;1718789;28;20204;-71
2021/12/07 02:09:20;;;;;;;0.10;0.10;;;;;;;;;;1717164;28;20209;-70
2021/12/07 02:10:16;;;;;;;0.00;0.00;;;;;;;;;;1719366;28;20546;-71
2021/12/07 02:11:07;;;;;;;0.08;0.08;;;;;;;;;;1717865;28;20237;-71
2021/12/07 02:12:01;;;;;;;0.00;0.00;;;;;;;;;;1718087;28;20719;-71
2021/12/07 02:12:55;;;;;;;0.00;0.00;;;;;;;;;;1717883;28;20544;-71
2021/12/07 02:14:54;;;;;;;0.10;0.10;;;;;;;;;;1717294;28;20489;-71
2021/12/07 02:15:45;;;;;;;0.00;0.00;;;;;;;;;;1717360;28;20862;-71
2021/12/07 02:16:37;;;;;;;0.20;0.20;;;;;;;;;;1718435;28;20226;-71
2021/12/07 02:17:33;;;;;;;0.10;0.10;;;;;;;;;;1718252;28;20656;-71
2021/12/07 02:18:25;;;;;;;0.10;0.10;;;;;;;;;;1718210;28;20191;-71
2021/12/07 02:19:16;;;;;;;0.10;0.10;;;;;;;;;;1715857;28;20278;-71
2021/12/07 02:20:10;;;;;;;0.10;0.10;;;;;;;;;;1717547;28;20210;-73
2021/12/07 02:21:14;;;;;;;0.00;0.00;;;;;;;;;;1716167;28;20229;-73
2021/12/07 02:22:07;;;;;;;0.10;0.10;;;;;;;;;;1712686;28;20222;-71
2021/12/07 02:22:59;;;;;;;0.10;0.10;;;;;;;;;;1718844;28;20216;-71
2021/12/07 02:23:52;;;;;;;0.00;0.00;;;;;;;;;;1717825;28;20211;-71
2021/12/07 02:24:43;;;;;;;0.00;0.00;;;;;;;;;;1717203;28;20213;-71
2021/12/07 02:25:35;;;;;;;0.10;0.10;;;;;;;;;;1717565;28;20211;-71
2021/12/07 02:26:26;;;;;;;0.00;0.00;;;;;;;;;;1717983;28;20315;-71
2021/12/07 02:27:18;;;;;;;0.10;0.10;;;;;;;;;;1718326;28;20265;-71
2021/12/07 02:28:13;;;;;;;0.00;0.00;;;;;;;;;;1718449;28;20240;-71
2021/12/07 02:29:06;;;;;;;0.00;0.00;;;;;;;;;;1717490;28;20214;-71
2021/12/07 02:29:57;;;;;;;0.10;0.10;;;;;;;;;;1718113;28;20246;-71
2021/12/07 02:30:49;;;;;;;0.00;0.00;;;;;;;;;;1717251;28;20310;-71
2021/12/07 02:31:41;;;;;;;0.00;0.00;;;;;;;;;;1718244;28;20210;-71
2021/12/07 02:32:33;;;;;;;0.10;0.10;;;;;;;;;;1717812;28;20213;-71
2021/12/07 02:33:24;;;;;;;0.03;0.03;;;;;;;;;;1718886;28;20764;-71
2021/12/07 02:34:17;;;;;;;0.00;0.00;;;;;;;;;;1717840;28;20201;-71
2021/12/07 02:35:11;;;;;;;0.15;0.15;;;;;;;;;;1719346;28;20204;-71
2021/12/07 02:36:04;;;;;;;0.00;0.00;;;;;;;;;;1716454;28;20235;-71
2021/12/07 02:36:59;;;;;;;0.10;0.10;;;;;;;;;;1717725;28;20224;-70
2021/12/07 02:37:53;;;;;;;0.08;0.08;;;;;;;;;;1711292;28;20694;-71
2021/12/07 02:38:44;;;;;;;0.00;0.00;;;;;;;;;;1711250;28;20206;-71
2021/12/07 02:39:40;;;;;;;0.00;0.00;;;;;;;;;;1711745;28;20215;-71
2021/12/07 02:40:31;;;;;;;0.00;0.00;;;;;;;;;;1710570;28;20215;-71
2021/12/07 02:41:23;;;;;;;0.00;0.00;;;;;;;;;;1711791;28;20214;-71
2021/12/07 02:42:14;;;;;;;0.10;0.10;;;;;;;;;;1709567;28;20208;-71
2021/12/07 02:43:06;;;;;;;0.00;0.00;;;;;;;;;;1710627;28;20236;-71
2021/12/07 02:43:58;;;;;;;0.20;0.20;;;;;;;;;;1711068;28;20207;-71
2021/12/07 02:44:50;;;;;;;0.00;0.00;;;;;;;;;;1711668;28;20248;-71
2021/12/07 02:45:41;;;;;;;0.10;0.10;;;;;;;;;;1708845;28;20574;-71
2021/12/07 02:46:33;;;;;;;0.00;0.00;;;;;;;;;;1711009;28;20324;-71
2021/12/07 02:47:25;;;;;;;0.10;0.10;;;;;;;;;;1711578;28;20208;-71
2021/12/07 02:48:17;;;;;;;0.00;0.00;;;;;;;;;;1711172;28;20204;-71
2021/12/07 02:49:09;;;;;;;0.10;0.10;;;;;;;;;;1710722;28;20296;-71
2021/12/07 02:50:01;;;;;;;0.00;0.00;;;;;;;;;;1711926;28;20209;-71
2021/12/07 02:50:53;;;;;;;0.00;0.00;;;;;;;;;;1710642;28;20303;-71
2021/12/07 02:51:44;;;;;;;0.10;0.10;;;;;;;;;;1712090;28;20643;-71
2021/12/07 02:52:38;;;;;;;0.10;0.10;;;;;;;;;;1710193;28;20212;-71
2021/12/07 02:53:30;;;;;;;0.10;0.10;;;;;;;;;;1711631;28;20537;-71
2021/12/07 02:54:22;;;;;;;0.00;0.00;;;;;;;;;;1710262;28;20293;-71
2021/12/07 02:55:14;;;;;;;0.03;0.03;;;;;;;;;;1705849;28;20275;-71
2021/12/07 02:56:07;;;;;;;0.00;0.00;;;;;;;;;;1710507;28;20642;-71
2021/12/07 02:56:58;;;;;;;0.00;0.00;;;;;;;;;;1711076;28;20233;-71
2021/12/07 02:57:50;;;;;;;0.00;0.00;;;;;;;;;;1711857;28;20211;-71
2021/12/07 02:58:43;;;;;;;0.10;0.10;;;;;;;;;;1710548;28;20209;-71
2021/12/07 02:59:36;;;;;;;0.10;0.10;;;;;;;;;;1707693;28;20244;-71
2021/12/07 03:00:35;;;;;;;0.00;0.00;;;;;;;;;;1709416;28;20205;-72
2021/12/07 03:01:31;;;;;;;0.10;0.10;;;;;;;;;;1711691;28;20603;-71
2021/12/07 03:02:23;;;;;;;0.00;0.00;;;;;;;;;;1710390;28;20667;-71
2021/12/07 03:03:16;;;;;;;0.00;0.00;;;;;;;;;;1711684;28;20198;-70
2021/12/07 03:04:11;;;;;;;0.00;0.00;;;;;;;;;;1710467;28;20270;-71
2021/12/07 03:05:10;;;;;;;0.08;0.08;;;;;;;;;;1705036;29;20569;-71
2021/12/07 03:06:12;;;;;;;0.00;0.00;;;;;;;;;;1709226;28;20235;-71
2021/12/07 03:07:13;;;;;;;0.00;0.00;;;;;;;;;;1710919;28;20201;-70
2021/12/07 03:08:24;;;;;;;0.20;0.20;;;;;;;;;;1709557;28;20631;-71
2021/12/07 03:25:59;;;;;;;0.00;0.00;;;;;;;;;;1717155;28;20251;-72
2021/12/07 03:26:50;;;;;;;0.00;0.00;;;;;;;;;;1718753;28;20575;-72
2021/12/07 03:27:44;;;;;;;0.00;0.00;;;;;;;;;;1718189;28;20754;-72
2021/12/07 03:28:37;;;;;;;0.00;0.00;;;;;;;;;;1716433;28;20236;-72
2021/12/07 03:29:29;;;;;;;0.00;0.00;;;;;;;;;;1718039;28;20284;-72
2021/12/07 03:30:21;;;;;;;0.10;0.10;;;;;;;;;;1717941;28;20207;-71
2021/12/07 03:31:14;;;;;;;0.20;0.20;;;;;;;;;;1717846;28;20313;-71
2021/12/07 03:32:05;;;;;;;0.00;0.00;;;;;;;;;;1718742;28;20320;-71
2021/12/07 03:32:57;;;;;;;0.05;0.05;;;;;;;;;;1719906;28;20238;-71
2021/12/07 03:33:49;;;;;;;0.10;0.10;;;;;;;;;;1718889;28;20267;-71
2021/12/07 03:34:41;;;;;;;0.05;0.05;;;;;;;;;;1718569;28;20322;-71
2021/12/07 03:35:32;;;;;;;0.00;0.00;;;;;;;;;;1718199;28;20267;-72
2021/12/07 03:36:25;;;;;;;0.05;0.05;;;;;;;;;;1719344;28;20201;-72
2021/12/07 03:37:16;;;;;;;0.00;0.00;;;;;;;;;;1721555;28;20228;-72
2021/12/07 03:38:09;;;;;;;0.00;0.00;;;;;;;;;;1726652;28;20295;-72
2021/12/07 03:39:02;;;;;;;0.00;0.00;;;;;;;;;;1725523;28;20613;-72
2021/12/07 03:39:54;;;;;;;0.05;0.05;;;;;;;;;;1725881;28;20207;-72
2021/12/07 03:40:45;;;;;;;0.10;0.10;;;;;;;;;;1724448;28;20293;-72
2021/12/07 03:41:37;;;;;;;0.10;0.10;;;;;;;;;;1726473;28;20631;-72
2021/12/07 03:42:29;;;;;;;0.00;0.00;;;;;;;;;;1724990;28;20695;-71
2021/12/07 03:43:21;;;;;;;0.00;0.00;;;;;;;;;;1722641;28;20608;-72
2021/12/07 03:44:12;;;;;;;0.10;0.10;;;;;;;;;;1725986;28;20201;-72
2021/12/07 03:45:08;;;;;;;0.00;0.00;;;;;;;;;;1725866;28;20274;-72
2021/12/07 03:45:59;;;;;;;0.10;0.10;;;;;;;;;;1723632;28;20239;-71
2021/12/07 03:46:52;;;;;;;0.00;0.00;;;;;;;;;;1725288;28;20196;-71
2021/12/07 03:47:43;;;;;;;0.00;0.00;;;;;;;;;;1726288;28;20684;-71
2021/12/07 03:48:36;;;;;;;0.10;0.10;;;;;;;;;;1726022;28;20196;-71
2021/12/07 03:49:27;;;;;;;0.10;0.10;;;;;;;;;;1725439;28;20211;-71
2021/12/07 03:50:21;;;;;;;0.08;0.08;;;;;;;;;;1726282;28;20230;-71
2021/12/07 03:51:12;;;;;;;0.00;0.00;;;;;;;;;;1725236;28;20231;-71
2021/12/07 03:52:05;;;;;;;0.00;0.00;;;;;;;;;;1725384;28;20269;-71
2021/12/07 03:52:56;;;;;;;0.00;0.00;;;;;;;;;;1726027;28;20227;-71
2021/12/07 03:53:48;;;;;;;0.00;0.00;;;;;;;;;;1725843;28;20295;-71
2021/12/07 03:54:41;;;;;;;0.20;0.20;;;;;;;;;;1726537;28;20219;-71
2021/12/07 03:55:33;;;;;;;0.00;0.00;;;;;;;;;;1725202;28;20212;-71
2021/12/07 03:56:24;;;;;;;0.10;0.10;;;;;;;;;;1725831;28;20207;-71
2021/12/07 03:57:17;;;;;;;0.10;0.10;;;;;;;;;;1723740;28;21909;-71
2021/12/07 03:58:08;;;;;;;0.00;0.00;;;;;;;;;;1726084;28;20221;-71
2021/12/07 03:59:01;;;;;;;0.00;0.00;;;;;;;;;;1725870;28;20318;-71
2021/12/07 03:59:52;;;;;;;0.00;0.00;;;;;;;;;;1726215;28;20208;-71
2021/12/07 04:00:45;;;;;;;0.00;0.00;;;;;;;;;;1724462;28;20239;-71
2021/12/07 04:01:36;;;;;;;0.00;0.00;;;;;;;;;;1720303;28;20204;-71
2021/12/07 04:02:29;;;;;;;0.10;0.10;;;;;;;;;;1723459;28;20200;-71
2021/12/07 04:03:20;;;;;;;0.10;0.10;;;;;;;;;;1723828;28;20318;-71
2021/12/07 04:04:12;;;;;;;0.20;0.20;;;;;;;;;;1723564;28;20206;-71
2021/12/07 04:05:11;;;;;;;0.00;0.00;;;;;;;;;;1719763;28;20634;-71
2021/12/07 04:06:06;;;;;;;0.00;0.00;;;;;;;;;;1719316;28;20763;-72
2021/12/07 04:06:58;;;;;;;0.10;0.10;;;;;;;;;;1719234;28;20213;-72
2021/12/07 04:07:51;;;;;;;0.00;0.00;;;;;;;;;;1718547;28;20205;-72
2021/12/07 04:08:43;;;;;;;0.10;0.10;;;;;;;;;;1718606;28;20211;-71
2021/12/07 04:09:35;;;;;;;0.00;0.00;;;;;;;;;;1718838;28;20225;-72
2021/12/07 04:10:28;;;;;;;0.00;0.00;;;;;;;;;;1717168;28;20190;-72
2021/12/07 04:11:20;;;;;;;0.00;0.00;;;;;;;;;;1719559;28;20256;-72
2021/12/07 04:12:11;;;;;;;0.00;0.00;;;;;;;;;;1719112;28;20219;-72
2021/12/07 04:13:03;;;;;;;0.03;0.03;;;;;;;;;;1719700;28;20205;-72
2021/12/07 04:13:54;;;;;;;0.10;0.10;;;;;;;;;;1717798;28;20290;-72
2021/12/07 04:14:47;;;;;;;0.00;0.00;;;;;;;;;;1719509;28;20271;-72
2021/12/07 04:15:38;;;;;;;0.00;0.00;;;;;;;;;;1718405;28;20208;-71
2021/12/07 04:16:30;;;;;;;0.00;0.00;;;;;;;;;;1718554;28;20259;-71
2021/12/07 04:17:21;;;;;;;0.08;0.08;;;;;;;;;;1719262;28;20877;-71
2021/12/07 04:18:14;;;;;;;0.00;0.00;;;;;;;;;;1719362;28;20212;-71
2021/12/07 04:19:05;;;;;;;0.00;0.00;;;;;;;;;;1719558;28;20205;-71
2021/12/07 04:19:57;;;;;;;0.10;0.10;;;;;;;;;;1719620;28;20642;-71
2021/12/07 04:20:48;;;;;;;0.03;0.03;;;;;;;;;;1719781;28;20232;-71
2021/12/07 04:21:40;;;;;;;0.00;0.00;;;;;;;;;;1724505;28;20587;-71
2021/12/07 04:22:32;;;;;;;0.00;0.00;;;;;;;;;;1719588;28;20630;-71
2021/12/07 04:23:24;;;;;;;0.00;0.00;;;;;;;;;;1719596;28;20202;-71
2021/12/07 04:24:15;;;;;;;0.00;0.00;;;;;;;;;;1718407;28;20213;-71
2021/12/07 04:25:09;;;;;;;0.10;0.10;;;;;;;;;;1719720;28;20201;-71
2021/12/07 04:26:02;;;;;;;0.10;0.10;;;;;;;;;;1717307;28;20298;-71
2021/12/07 04:26:54;;;;;;;0.03;0.03;;;;;;;;;;1719073;28;20623;-71
2021/12/07 04:27:46;;;;;;;0.10;0.10;;;;;;;;;;1718294;28;20203;-71
2021/12/07 04:28:39;;;;;;;0.00;0.00;;;;;;;;;;1718460;28;20308;-71
2021/12/07 04:29:30;;;;;;;0.10;0.10;;;;;;;;;;1719457;28;20209;-70
2021/12/07 04:30:25;;;;;;;0.00;0.00;;;;;;;;;;1718456;28;20204;-71
2021/12/07 04:31:16;;;;;;;0.00;0.00;;;;;;;;;;1715316;28;20397;-71
2021/12/07 04:32:09;;;;;;;0.00;0.00;;;;;;;;;;1718594;28;20232;-71
2021/12/07 04:33:01;;;;;;;0.00;0.00;;;;;;;;;;1719083;28;20220;-71
2021/12/07 04:33:53;;;;;;;0.00;0.00;;;;;;;;;;1718254;28;20312;-71
2021/12/07 04:34:45;;;;;;;0.10;0.10;;;;;;;;;;1719453;28;20219;-71
2021/12/07 04:35:38;;;;;;;0.08;0.08;;;;;;;;;;1717503;28;20201;-71
2021/12/07 04:36:29;;;;;;;0.00;0.00;;;;;;;;;;1718691;28;20650;-71
2021/12/07 04:37:21;;;;;;;0.08;0.08;;;;;;;;;;1717828;28;20233;-71
2021/12/07 04:38:13;;;;;;;0.10;0.10;;;;;;;;;;1719311;28;20209;-71
2021/12/07 04:39:05;;;;;;;0.10;0.10;;;;;;;;;;1717685;28;20220;-71
2021/12/07 04:39:57;;;;;;;0.10;0.10;;;;;;;;;;1718916;28;20613;-70
2021/12/07 04:40:49;;;;;;;0.00;0.00;;;;;;;;;;1717614;28;20246;-71
2021/12/07 04:41:44;;;;;;;0.10;0.10;;;;;;;;;;1719579;28;20297;-70
2021/12/07 04:42:36;;;;;;;0.30;0.30;;;;;;;;;;1717710;28;20253;-71
2021/12/07 04:43:28;;;;;;;0.00;0.00;;;;;;;;;;1714787;28;20288;-71
2021/12/07 04:44:22;;;;;;;0.00;0.00;;;;;;;;;;1716584;28;20201;-71
2021/12/07 04:45:24;;;;;;;0.10;0.10;;;;;;;;;;1719104;28;20874;-71
2021/12/07 04:46:22;;;;;;;0.10;0.10;;;;;;;;;;1720909;28;20238;-71
2021/12/07 04:47:20;;;;;;;0.00;0.00;;;;;;;;;;1724634;28;20235;-71
2021/12/07 04:48:35;;;;;;;0.20;0.20;;;;;;;;;;1725553;28;20204;-71
2021/12/07 04:49:53;;;;;;;0.00;0.00;;;;;;;;;;1725482;28;20201;-71
2021/12/07 04:57:48;;;;;;;0.00;0.00;;;;;;;;;;1725178;28;20305;-70
2021/12/07 04:58:39;;;;;;;0.10;0.10;;;;;;;;;;1725233;28;20196;-71
2021/12/07 04:59:31;;;;;;;0.10;0.10;;;;;;;;;;1724718;28;20511;-71
2021/12/07 05:00:24;;;;;;;0.00;0.00;;;;;;;;;;1725239;28;20211;-71
2021/12/07 05:01:16;;;;;;;0.13;0.13;;;;;;;;;;1718955;28;20630;-71
2021/12/07 05:02:07;;;;;;;0.03;0.03;;;;;;;;;;1721333;28;20203;-71
2021/12/07 05:03:03;;;;;;;0.00;0.00;;;;;;;;;;1725537;28;20266;-71
2021/12/07 05:03:57;;;;;;;0.00;0.00;;;;;;;;;;1721032;28;20213;-71
2021/12/07 05:04:49;;;;;;;0.10;0.10;;;;;;;;;;1725569;28;20208;-71
2021/12/07 05:05:45;;;;;;;0.10;0.10;;;;;;;;;;1724526;28;20319;-71
2021/12/07 05:06:44;;;;;;;0.10;0.10;;;;;;;;;;1725679;28;20204;-71
2021/12/07 05:07:41;;;;;;;0.10;0.10;;;;;;;;;;1725083;28;20294;-71
2021/12/07 05:08:38;;;;;;;0.00;0.00;;;;;;;;;;1725612;28;20221;-71
2021/12/07 05:09:42;;;;;;;0.10;0.10;;;;;;;;;;1724861;28;20512;-71
2021/12/07 05:10:38;;;;;;;0.20;0.20;;;;;;;;;;1724160;28;20604;-71
2021/12/07 05:11:47;;;;;;;0.10;0.10;;;;;;;;;;1725969;28;20224;-71
2021/12/07 05:12:56;;;;;;;0.10;0.10;;;;;;;;;;1724937;28;20239;-71
2021/12/07 05:13:59;;;;;;;0.10;0.10;;;;;;;;;;1725169;28;20247;-71
2021/12/07 05:14:59;;;;;;;0.20;0.20;;;;;;;;;;1725371;28;20246;-71
2021/12/07 05:16:04;;;;;;;0.00;0.00;;;;;;;;;;1724281;28;20242;-71
2021/12/07 05:17:12;;;;;;;0.00;0.00;;;;;;;;;;1724820;28;20206;-71
2021/12/07 05:18:20;;;;;;;0.00;0.00;;;;;;;;;;1723448;28;20506;-71
2021/12/07 05:23:59;;;;;;;0.00;0.00;;;;;;;;;;1725298;28;20192;-71
2021/12/07 05:25:12;;;;;;;0.03;0.03;;;;;;;;;;1725902;28;20646;-71
2021/12/07 05:37:48;;;;;;;0.10;0.10;;;;;;;;;;1724196;28;20251;-71
2021/12/07 05:38:39;;;;;;;0.10;0.10;;;;;;;;;;1724373;28;20657;-71
2021/12/07 05:39:31;;;;;;;0.00;0.00;;;;;;;;;;1724914;28;20678;-71
2021/12/07 05:40:24;;;;;;;0.00;0.00;;;;;;;;;;1724927;28;20200;-71
2021/12/07 05:41:16;;;;;;;0.10;0.10;;;;;;;;;;1725614;28;20262;-71
2021/12/07 05:42:08;;;;;;;0.00;0.00;;;;;;;;;;1724050;28;20543;-71
2021/12/07 05:43:00;;;;;;;0.00;0.00;;;;;;;;;;1723100;28;20237;-71
2021/12/07 05:43:52;;;;;;;0.10;0.10;;;;;;;;;;1723138;28;20211;-71
2021/12/07 05:44:45;;;;;;;0.00;0.00;;;;;;;;;;1723097;28;20212;-71
2021/12/07 05:45:38;;;;;;;0.00;0.00;;;;;;;;;;1723932;28;20693;-71
2021/12/07 05:46:30;;;;;;;0.00;0.00;;;;;;;;;;1725324;28;20200;-71
2021/12/07 05:47:22;;;;;;;0.00;0.00;;;;;;;;;;1724601;28;20204;-71
2021/12/07 05:48:14;;;;;;;0.00;0.00;;;;;;;;;;1725495;28;20511;-71
2021/12/07 05:49:06;;;;;;;0.00;0.00;;;;;;;;;;1724629;28;20215;-71
2021/12/07 05:49:58;;;;;;;0.00;0.00;;;;;;;;;;1725150;28;20318;-71
2021/12/07 05:50:50;;;;;;;0.10;0.10;;;;;;;;;;1723538;28;20228;-71
2021/12/07 05:51:41;;;;;;;0.00;0.00;;;;;;;;;;1725729;28;20235;-71
2021/12/07 05:52:33;;;;;;;0.10;0.10;;;;;;;;;;1725503;28;20204;-71
2021/12/07 05:53:24;;;;;;;0.00;0.00;;;;;;;;;;1725799;28;20204;-71
2021/12/07 05:54:17;;;;;;;0.00;0.00;;;;;;;;;;1724847;28;20616;-71
2021/12/07 05:55:08;;;;;;;0.00;0.00;;;;;;;;;;1725417;28;20219;-71
2021/12/07 05:56:00;;;;;;;0.10;0.10;;;;;;;;;;1723191;28;20218;-71
2021/12/07 05:56:51;;;;;;;0.10;0.10;;;;;;;;;;1725441;28;20219;-71
2021/12/07 05:57:44;;;;;;;0.00;0.00;;;;;;;;;;1724598;28;20210;-71
2021/12/07 05:58:36;;;;;;;0.10;0.10;;;;;;;;;;1725366;28;20238;-71
2021/12/07 05:59:28;;;;;;;0.10;0.10;;;;;;;;;;1725368;28;20274;-72
2021/12/07 06:00:25;;;;;;;0.00;0.00;;;;;;;;;;1725520;28;20602;-71
2021/12/07 06:01:16;;;;;;;0.10;0.10;;;;;;;;;;1720925;28;20269;-71
2021/12/07 06:02:09;;;;;;;0.00;0.00;;;;;;;;;;1719207;28;20581;-71
2021/12/07 06:03:01;;;;;;;0.10;0.10;;;;;;;;;;1725761;28;20515;-70
2021/12/07 06:03:53;;;;;;;0.10;0.10;;;;;;;;;;1721415;28;20205;-70
2021/12/07 06:04:45;;;;;;;0.10;0.10;;;;;;;;;;1725756;28;20213;-71
2021/12/07 06:05:38;;;;;;;0.00;0.00;;;;;;;;;;1724798;28;20589;-71
2021/12/07 06:06:29;;;;;;;0.00;0.00;;;;;;;;;;1725238;28;20210;-71
2021/12/07 06:07:21;;;;;;;0.00;0.00;;;;;;;;;;1724677;28;20284;-71
2021/12/07 06:08:12;;;;;;;0.00;0.00;;;;;;;;;;1725079;28;20208;-71
2021/12/07 06:09:05;;;;;;;0.00;0.00;;;;;;;;;;1723874;28;20216;-71
2021/12/07 06:09:56;;;;;;;0.03;0.03;;;;;;;;;;1725754;28;20212;-70
2021/12/07 06:10:48;;;;;;;0.00;0.00;;;;;;;;;;1724161;28;20230;-70
2021/12/07 06:11:41;;;;;;;0.00;0.00;;;;;;;;;;1726159;28;20207;-71
2021/12/07 06:12:33;;;;;;;0.05;0.05;;;;;;;;;;1724353;28;20201;-71
2021/12/07 06:13:25;;;;;;;0.10;0.10;;;;;;;;;;1725538;28;20220;-71
2021/12/07 06:14:19;;;;;;;0.00;0.00;;;;;;;;;;1724573;28;20282;-71
2021/12/07 06:15:13;;;;;;;0.20;0.20;;;;;;;;;;1726279;28;20206;-71
2021/12/07 06:16:08;;;;;;;0.00;0.00;;;;;;;;;;1723772;28;20231;-71
2021/12/07 06:17:00;;;;;;;0.00;0.00;;;;;;;;;;1725063;28;20203;-71
2021/12/07 06:17:51;;;;;;;0.10;0.10;;;;;;;;;;1725624;28;20207;-71
2021/12/07 06:18:44;;;;;;;0.00;0.00;;;;;;;;;;1724525;28;20641;-71
2021/12/07 06:19:35;;;;;;;0.10;0.10;;;;;;;;;;1723333;28;20208;-71
2021/12/07 06:20:28;;;;;;;0.00;0.00;;;;;;;;;;1722864;28;20202;-71
2021/12/07 06:21:19;;;;;;;0.00;0.00;;;;;;;;;;1723098;28;20234;-71
2021/12/07 06:22:11;;;;;;;0.00;0.00;;;;;;;;;;1720420;28;20201;-70
2021/12/07 06:23:03;;;;;;;0.00;0.00;;;;;;;;;;1725984;28;20202;-70
2021/12/07 06:23:55;;;;;;;0.00;0.00;;;;;;;;;;1724935;28;20339;-70
2021/12/07 06:24:46;;;;;;;0.20;0.20;;;;;;;;;;1726009;28;20612;-70
2021/12/07 06:25:38;;;;;;;0.10;0.10;;;;;;;;;;1723785;28;20204;-71
2021/12/07 06:26:30;;;;;;;0.00;0.00;;;;;;;;;;1725639;28;20200;-71
2021/12/07 06:27:22;;;;;;;0.20;0.20;;;;;;;;;;1724409;28;20231;-71
2021/12/07 06:28:13;;;;;;;0.00;0.00;;;;;;;;;;1725557;28;20214;-71
2021/12/07 06:29:06;;;;;;;0.00;0.00;;;;;;;;;;1725032;28;20262;-71
2021/12/07 06:29:57;;;;;;;0.00;0.00;;;;;;;;;;1725269;28;20212;-71
2021/12/07 06:30:50;;;;;;;0.10;0.10;;;;;;;;;;1724588;28;20721;-71
2021/12/07 06:31:43;;;;;;;0.00;0.00;;;;;;;;;;1725232;28;20213;-71